sensor_id;sensor_type;location;lat;lon;timestamp;P1;durP1;ratioP1;P2;durP2;ratioP2
11197;SDS011;5655;48.744;9.162;2023-08-21T00:01:36;9.23;;;5.57;;
11197;SDS011;5655;48.744;9.162;2023-08-21T00:04:01;8.00;;;5.07;;
11197;SDS011;5655;48.744;9.162;2023-08-21T00:06:27;8.60;;;5.60;;
11197;SDS011;5655;48.744;9.162;2023-08-21T00:08:53;5.82;;;5.07;;
11197;SDS011;5655;48.744;9.162;2023-08-21T00:11:18;6.60;;;4.88;;
11197;SDS011;5655;48.744;9.162;2023-08-21T00:13:43;7.55;;;5.72;;
11197;SDS011;5655;48.744;9.162;2023-08-21T00:16:10;9.93;;;5.60;;
11197;SDS011;5655;48.744;9.162;2023-08-21T00:18:38;6.05;;;4.97;;
11197;SDS011;5655;48.744;9.162;2023-08-21T00:21:03;7.38;;;5.40;;
11197;SDS011;5655;48.744;9.162;2023-08-21T00:23:29;6.13;;;4.93;;
11197;SDS011;5655;48.744;9.162;2023-08-21T00:25:54;7.38;;;5.50;;
11197;SDS011;5655;48.744;9.162;2023-08-21T00:28:19;5.90;;;5.28;;
11197;SDS011;5655;48.744;9.162;2023-08-21T00:30:45;8.90;;;4.90;;
11197;SDS011;5655;48.744;9.162;2023-08-21T00:33:10;7.10;;;4.93;;
11197;SDS011;5655;48.744;9.162;2023-08-21T00:35:35;7.35;;;4.90;;
11197;SDS011;5655;48.744;9.162;2023-08-21T00:38:01;9.75;;;5.60;;
11197;SDS011;5655;48.744;9.162;2023-08-21T00:40:26;8.05;;;5.28;;
11197;SDS011;5655;48.744;9.162;2023-08-21T00:42:51;7.63;;;5.15;;
11197;SDS011;5655;48.744;9.162;2023-08-21T00:45:16;6.22;;;5.63;;
11197;SDS011;5655;48.744;9.162;2023-08-21T00:47:42;6.10;;;5.50;;
11197;SDS011;5655;48.744;9.162;2023-08-21T00:50:08;7.38;;;5.40;;
11197;SDS011;5655;48.744;9.162;2023-08-21T00:52:36;5.78;;;4.80;;
11197;SDS011;5655;48.744;9.162;2023-08-21T00:55:04;6.18;;;4.63;;
11197;SDS011;5655;48.744;9.162;2023-08-21T00:57:30;9.60;;;5.75;;
11197;SDS011;5655;48.744;9.162;2023-08-21T00:59:56;8.02;;;5.30;;
11197;SDS011;5655;48.744;9.162;2023-08-21T01:02:22;9.48;;;5.53;;
11197;SDS011;5655;48.744;9.162;2023-08-21T01:04:48;7.38;;;5.00;;
11197;SDS011;5655;48.744;9.162;2023-08-21T01:07:13;8.30;;;5.95;;
11197;SDS011;5655;48.744;9.162;2023-08-21T01:09:44;7.00;;;5.60;;
11197;SDS011;5655;48.744;9.162;2023-08-21T01:12:17;6.28;;;5.18;;
11197;SDS011;5655;48.744;9.162;2023-08-21T01:14:59;6.40;;;5.22;;
11197;SDS011;5655;48.744;9.162;2023-08-21T01:17:28;9.18;;;5.78;;
11197;SDS011;5655;48.744;9.162;2023-08-21T01:19:55;10.25;;;5.32;;
11197;SDS011;5655;48.744;9.162;2023-08-21T01:22:42;7.75;;;5.30;;
11197;SDS011;5655;48.744;9.162;2023-08-21T01:25:11;8.25;;;5.03;;
11197;SDS011;5655;48.744;9.162;2023-08-21T01:27:36;6.22;;;5.03;;
11197;SDS011;5655;48.744;9.162;2023-08-21T01:30:03;5.72;;;5.03;;
11197;SDS011;5655;48.744;9.162;2023-08-21T01:35:25;5.93;;;5.28;;
11197;SDS011;5655;48.744;9.162;2023-08-21T01:37:52;6.57;;;5.80;;
11197;SDS011;5655;48.744;9.162;2023-08-21T01:40:21;6.40;;;5.68;;
11197;SDS011;5655;48.744;9.162;2023-08-21T01:42:47;7.82;;;5.18;;
11197;SDS011;5655;48.744;9.162;2023-08-21T01:45:12;6.35;;;5.60;;
11197;SDS011;5655;48.744;9.162;2023-08-21T01:47:38;8.10;;;5.32;;
11197;SDS011;5655;48.744;9.162;2023-08-21T01:50:03;6.97;;;5.63;;
11197;SDS011;5655;48.744;9.162;2023-08-21T01:52:29;5.95;;;5.03;;
11197;SDS011;5655;48.744;9.162;2023-08-21T01:54:54;8.23;;;5.50;;
11197;SDS011;5655;48.744;9.162;2023-08-21T01:57:19;5.97;;;5.28;;
11197;SDS011;5655;48.744;9.162;2023-08-21T01:59:45;9.15;;;5.97;;
11197;SDS011;5655;48.744;9.162;2023-08-21T02:02:10;7.20;;;6.35;;
11197;SDS011;5655;48.744;9.162;2023-08-21T02:04:35;10.00;;;5.80;;
11197;SDS011;5655;48.744;9.162;2023-08-21T02:07:01;6.93;;;5.88;;
11197;SDS011;5655;48.744;9.162;2023-08-21T02:09:26;9.50;;;6.22;;
11197;SDS011;5655;48.744;9.162;2023-08-21T02:11:51;9.43;;;5.80;;
11197;SDS011;5655;48.744;9.162;2023-08-21T02:14:16;8.13;;;6.40;;
11197;SDS011;5655;48.744;9.162;2023-08-21T02:16:42;8.43;;;6.15;;
11197;SDS011;5655;48.744;9.162;2023-08-21T02:19:07;8.63;;;5.70;;
11197;SDS011;5655;48.744;9.162;2023-08-21T02:21:34;8.38;;;6.07;;
11197;SDS011;5655;48.744;9.162;2023-08-21T02:23:59;6.90;;;5.85;;
11197;SDS011;5655;48.744;9.162;2023-08-21T02:26:25;12.27;;;5.97;;
11197;SDS011;5655;48.744;9.162;2023-08-21T02:28:50;6.70;;;5.90;;
11197;SDS011;5655;48.744;9.162;2023-08-21T02:31:15;8.52;;;5.90;;
11197;SDS011;5655;48.744;9.162;2023-08-21T02:33:40;7.38;;;6.00;;
11197;SDS011;5655;48.744;9.162;2023-08-21T02:36:06;5.97;;;5.38;;
11197;SDS011;5655;48.744;9.162;2023-08-21T02:38:32;8.82;;;6.20;;
11197;SDS011;5655;48.744;9.162;2023-08-21T02:40:57;8.73;;;5.95;;
11197;SDS011;5655;48.744;9.162;2023-08-21T02:43:23;8.27;;;6.50;;
11197;SDS011;5655;48.744;9.162;2023-08-21T02:45:48;7.32;;;5.97;;
11197;SDS011;5655;48.744;9.162;2023-08-21T02:48:13;8.00;;;6.45;;
11197;SDS011;5655;48.744;9.162;2023-08-21T02:50:39;6.95;;;6.15;;
11197;SDS011;5655;48.744;9.162;2023-08-21T02:53:04;7.30;;;5.90;;
11197;SDS011;5655;48.744;9.162;2023-08-21T02:55:30;8.15;;;5.95;;
11197;SDS011;5655;48.744;9.162;2023-08-21T02:57:56;7.80;;;5.93;;
11197;SDS011;5655;48.744;9.162;2023-08-21T03:00:21;7.95;;;6.05;;
11197;SDS011;5655;48.744;9.162;2023-08-21T03:02:46;6.85;;;5.82;;
11197;SDS011;5655;48.744;9.162;2023-08-21T03:05:12;7.78;;;5.85;;
11197;SDS011;5655;48.744;9.162;2023-08-21T03:07:38;10.05;;;6.32;;
11197;SDS011;5655;48.744;9.162;2023-08-21T03:10:04;6.90;;;6.03;;
11197;SDS011;5655;48.744;9.162;2023-08-21T03:12:30;8.57;;;6.03;;
11197;SDS011;5655;48.744;9.162;2023-08-21T03:14:56;11.85;;;7.00;;
11197;SDS011;5655;48.744;9.162;2023-08-21T03:17:21;9.43;;;6.28;;
11197;SDS011;5655;48.744;9.162;2023-08-21T03:19:46;10.90;;;6.10;;
11197;SDS011;5655;48.744;9.162;2023-08-21T03:22:11;10.02;;;6.47;;
11197;SDS011;5655;48.744;9.162;2023-08-21T03:24:37;6.43;;;5.28;;
11197;SDS011;5655;48.744;9.162;2023-08-21T03:27:02;9.27;;;6.30;;
11197;SDS011;5655;48.744;9.162;2023-08-21T03:29:28;7.45;;;6.13;;
11197;SDS011;5655;48.744;9.162;2023-08-21T03:31:53;8.43;;;6.65;;
11197;SDS011;5655;48.744;9.162;2023-08-21T03:34:22;8.52;;;6.53;;
11197;SDS011;5655;48.744;9.162;2023-08-21T03:36:47;7.97;;;6.18;;
11197;SDS011;5655;48.744;9.162;2023-08-21T03:39:12;7.82;;;6.07;;
11197;SDS011;5655;48.744;9.162;2023-08-21T03:41:38;9.73;;;6.35;;
11197;SDS011;5655;48.744;9.162;2023-08-21T03:44:03;6.82;;;6.10;;
11197;SDS011;5655;48.744;9.162;2023-08-21T03:46:29;7.97;;;6.82;;
11197;SDS011;5655;48.744;9.162;2023-08-21T03:48:54;10.68;;;6.50;;
11197;SDS011;5655;48.744;9.162;2023-08-21T03:51:19;8.50;;;6.55;;
11197;SDS011;5655;48.744;9.162;2023-08-21T03:53:45;8.00;;;6.32;;
11197;SDS011;5655;48.744;9.162;2023-08-21T03:56:10;8.60;;;6.32;;
11197;SDS011;5655;48.744;9.162;2023-08-21T03:58:35;7.65;;;6.20;;
11197;SDS011;5655;48.744;9.162;2023-08-21T04:01:01;7.13;;;6.00;;
11197;SDS011;5655;48.744;9.162;2023-08-21T04:03:26;7.30;;;6.20;;
11197;SDS011;5655;48.744;9.162;2023-08-21T04:05:53;10.00;;;6.45;;
11197;SDS011;5655;48.744;9.162;2023-08-21T04:08:19;7.82;;;6.50;;
11197;SDS011;5655;48.744;9.162;2023-08-21T04:10:44;6.72;;;5.75;;
11197;SDS011;5655;48.744;9.162;2023-08-21T04:13:09;9.43;;;6.28;;
11197;SDS011;5655;48.744;9.162;2023-08-21T04:15:35;7.47;;;6.25;;
11197;SDS011;5655;48.744;9.162;2023-08-21T04:18:00;8.55;;;6.47;;
11197;SDS011;5655;48.744;9.162;2023-08-21T04:20:26;10.82;;;6.15;;
11197;SDS011;5655;48.744;9.162;2023-08-21T04:22:51;9.90;;;7.03;;
11197;SDS011;5655;48.744;9.162;2023-08-21T04:25:16;7.72;;;6.30;;
11197;SDS011;5655;48.744;9.162;2023-08-21T04:27:42;7.03;;;5.88;;
11197;SDS011;5655;48.744;9.162;2023-08-21T04:30:08;11.23;;;6.22;;
11197;SDS011;5655;48.744;9.162;2023-08-21T04:32:34;10.35;;;6.50;;
11197;SDS011;5655;48.744;9.162;2023-08-21T04:34:59;7.15;;;5.75;;
11197;SDS011;5655;48.744;9.162;2023-08-21T04:37:24;9.57;;;6.50;;
11197;SDS011;5655;48.744;9.162;2023-08-21T04:39:53;8.48;;;6.03;;
11197;SDS011;5655;48.744;9.162;2023-08-21T04:42:19;10.55;;;6.38;;
11197;SDS011;5655;48.744;9.162;2023-08-21T04:44:44;8.85;;;5.97;;
11197;SDS011;5655;48.744;9.162;2023-08-21T04:47:22;8.55;;;6.60;;
11197;SDS011;5655;48.744;9.162;2023-08-21T04:49:51;8.73;;;6.90;;
11197;SDS011;5655;48.744;9.162;2023-08-21T04:52:18;8.30;;;6.63;;
11197;SDS011;5655;48.744;9.162;2023-08-21T04:54:44;6.80;;;6.03;;
11197;SDS011;5655;48.744;9.162;2023-08-21T04:57:11;7.60;;;6.18;;
11197;SDS011;5655;48.744;9.162;2023-08-21T04:59:37;7.90;;;6.50;;
11197;SDS011;5655;48.744;9.162;2023-08-21T05:02:03;8.95;;;5.70;;
11197;SDS011;5655;48.744;9.162;2023-08-21T05:04:28;9.15;;;6.60;;
11197;SDS011;5655;48.744;9.162;2023-08-21T05:06:54;6.68;;;5.97;;
11197;SDS011;5655;48.744;9.162;2023-08-21T05:09:19;7.75;;;6.40;;
11197;SDS011;5655;48.744;9.162;2023-08-21T05:11:45;9.35;;;6.55;;
11197;SDS011;5655;48.744;9.162;2023-08-21T05:14:10;8.05;;;6.32;;
11197;SDS011;5655;48.744;9.162;2023-08-21T05:16:35;8.18;;;6.50;;
11197;SDS011;5655;48.744;9.162;2023-08-21T05:19:00;8.30;;;5.93;;
11197;SDS011;5655;48.744;9.162;2023-08-21T05:21:26;7.93;;;6.60;;
11197;SDS011;5655;48.744;9.162;2023-08-21T05:23:52;9.00;;;7.00;;
11197;SDS011;5655;48.744;9.162;2023-08-21T05:26:18;8.88;;;6.72;;
11197;SDS011;5655;48.744;9.162;2023-08-21T05:28:44;6.78;;;6.07;;
11197;SDS011;5655;48.744;9.162;2023-08-21T05:31:09;10.18;;;6.47;;
11197;SDS011;5655;48.744;9.162;2023-08-21T05:33:35;11.23;;;6.78;;
11197;SDS011;5655;48.744;9.162;2023-08-21T05:36:00;9.82;;;6.40;;
11197;SDS011;5655;48.744;9.162;2023-08-21T05:38:26;9.57;;;6.25;;
11197;SDS011;5655;48.744;9.162;2023-08-21T05:40:51;8.77;;;5.88;;
11197;SDS011;5655;48.744;9.162;2023-08-21T05:43:16;6.38;;;5.57;;
11197;SDS011;5655;48.744;9.162;2023-08-21T05:45:42;8.55;;;6.30;;
11197;SDS011;5655;48.744;9.162;2023-08-21T05:48:07;7.35;;;6.63;;
11197;SDS011;5655;48.744;9.162;2023-08-21T05:50:33;7.18;;;6.10;;
11197;SDS011;5655;48.744;9.162;2023-08-21T05:52:58;7.88;;;5.78;;
11197;SDS011;5655;48.744;9.162;2023-08-21T05:55:26;7.90;;;6.15;;
11197;SDS011;5655;48.744;9.162;2023-08-21T05:57:52;8.68;;;5.97;;
11197;SDS011;5655;48.744;9.162;2023-08-21T06:00:17;8.32;;;5.55;;
11197;SDS011;5655;48.744;9.162;2023-08-21T06:02:43;7.55;;;6.00;;
11197;SDS011;5655;48.744;9.162;2023-08-21T06:05:08;11.02;;;6.47;;
11197;SDS011;5655;48.744;9.162;2023-08-21T06:07:34;8.07;;;5.68;;
11197;SDS011;5655;48.744;9.162;2023-08-21T06:09:59;9.13;;;5.53;;
11197;SDS011;5655;48.744;9.162;2023-08-21T06:12:24;7.00;;;5.30;;
11197;SDS011;5655;48.744;9.162;2023-08-21T06:14:50;6.72;;;6.13;;
11197;SDS011;5655;48.744;9.162;2023-08-21T06:17:15;9.00;;;5.80;;
11197;SDS011;5655;48.744;9.162;2023-08-21T06:19:41;6.40;;;5.53;;
11197;SDS011;5655;48.744;9.162;2023-08-21T06:22:06;9.25;;;6.47;;
11197;SDS011;5655;48.744;9.162;2023-08-21T06:24:32;7.45;;;6.30;;
11197;SDS011;5655;48.744;9.162;2023-08-21T06:26:57;6.97;;;5.70;;
11197;SDS011;5655;48.744;9.162;2023-08-21T06:29:23;8.68;;;5.78;;
11197;SDS011;5655;48.744;9.162;2023-08-21T06:31:49;6.55;;;5.60;;
11197;SDS011;5655;48.744;9.162;2023-08-21T06:34:14;9.95;;;6.10;;
11197;SDS011;5655;48.744;9.162;2023-08-21T06:36:40;13.23;;;5.88;;
11197;SDS011;5655;48.744;9.162;2023-08-21T06:39:05;6.20;;;5.65;;
11197;SDS011;5655;48.744;9.162;2023-08-21T06:41:30;6.72;;;5.40;;
11197;SDS011;5655;48.744;9.162;2023-08-21T06:43:56;5.90;;;5.20;;
11197;SDS011;5655;48.744;9.162;2023-08-21T06:46:23;7.18;;;5.47;;
11197;SDS011;5655;48.744;9.162;2023-08-21T06:48:48;10.68;;;6.32;;
11197;SDS011;5655;48.744;9.162;2023-08-21T06:51:15;8.70;;;6.07;;
11197;SDS011;5655;48.744;9.162;2023-08-21T06:53:40;10.65;;;6.15;;
11197;SDS011;5655;48.744;9.162;2023-08-21T06:56:06;10.52;;;5.78;;
11197;SDS011;5655;48.744;9.162;2023-08-21T06:58:31;6.53;;;5.68;;
11197;SDS011;5655;48.744;9.162;2023-08-21T07:00:57;6.45;;;5.60;;
11197;SDS011;5655;48.744;9.162;2023-08-21T07:03:22;10.57;;;6.00;;
11197;SDS011;5655;48.744;9.162;2023-08-21T07:05:54;7.57;;;5.88;;
11197;SDS011;5655;48.744;9.162;2023-08-21T07:08:23;8.75;;;5.93;;
11197;SDS011;5655;48.744;9.162;2023-08-21T07:10:49;10.27;;;6.25;;
11197;SDS011;5655;48.744;9.162;2023-08-21T07:13:14;6.55;;;5.72;;
11197;SDS011;5655;48.744;9.162;2023-08-21T07:15:40;10.52;;;6.22;;
11197;SDS011;5655;48.744;9.162;2023-08-21T07:18:05;9.45;;;5.88;;
11197;SDS011;5655;48.744;9.162;2023-08-21T07:20:31;7.70;;;6.28;;
11197;SDS011;5655;48.744;9.162;2023-08-21T07:22:57;8.70;;;5.35;;
11197;SDS011;5655;48.744;9.162;2023-08-21T07:25:23;7.82;;;6.32;;
11197;SDS011;5655;48.744;9.162;2023-08-21T07:27:49;7.72;;;6.13;;
11197;SDS011;5655;48.744;9.162;2023-08-21T07:30:16;9.45;;;5.63;;
11197;SDS011;5655;48.744;9.162;2023-08-21T07:32:42;7.60;;;5.88;;
11197;SDS011;5655;48.744;9.162;2023-08-21T07:35:08;7.28;;;5.25;;
11197;SDS011;5655;48.744;9.162;2023-08-21T07:37:33;6.32;;;5.72;;
11197;SDS011;5655;48.744;9.162;2023-08-21T07:39:58;7.78;;;5.70;;
11197;SDS011;5655;48.744;9.162;2023-08-21T07:42:24;6.97;;;6.00;;
11197;SDS011;5655;48.744;9.162;2023-08-21T07:44:49;11.10;;;5.85;;
11197;SDS011;5655;48.744;9.162;2023-08-21T07:47:15;6.82;;;5.93;;
11197;SDS011;5655;48.744;9.162;2023-08-21T07:49:40;7.60;;;5.57;;
11197;SDS011;5655;48.744;9.162;2023-08-21T07:52:05;8.07;;;5.93;;
11197;SDS011;5655;48.744;9.162;2023-08-21T07:54:31;6.82;;;5.55;;
11197;SDS011;5655;48.744;9.162;2023-08-21T07:56:56;11.35;;;5.90;;
11197;SDS011;5655;48.744;9.162;2023-08-21T07:59:21;10.48;;;5.60;;
11197;SDS011;5655;48.744;9.162;2023-08-21T08:01:47;10.40;;;5.88;;
11197;SDS011;5655;48.744;9.162;2023-08-21T08:04:12;9.68;;;6.50;;
11197;SDS011;5655;48.744;9.162;2023-08-21T08:06:38;9.02;;;6.10;;
11197;SDS011;5655;48.744;9.162;2023-08-21T08:09:03;7.45;;;5.97;;
11197;SDS011;5655;48.744;9.162;2023-08-21T08:11:29;6.60;;;5.93;;
11197;SDS011;5655;48.744;9.162;2023-08-21T08:13:55;8.00;;;5.63;;
11197;SDS011;5655;48.744;9.162;2023-08-21T08:16:20;9.15;;;6.00;;
11197;SDS011;5655;48.744;9.162;2023-08-21T08:18:45;7.32;;;5.95;;
11197;SDS011;5655;48.744;9.162;2023-08-21T08:21:11;9.65;;;6.15;;
11197;SDS011;5655;48.744;9.162;2023-08-21T08:23:36;7.57;;;6.65;;
11197;SDS011;5655;48.744;9.162;2023-08-21T08:26:02;10.75;;;6.82;;
11197;SDS011;5655;48.744;9.162;2023-08-21T08:28:27;8.63;;;5.93;;
11197;SDS011;5655;48.744;9.162;2023-08-21T08:30:52;9.32;;;6.88;;
11197;SDS011;5655;48.744;9.162;2023-08-21T08:33:18;8.48;;;6.72;;
11197;SDS011;5655;48.744;9.162;2023-08-21T08:35:43;8.68;;;6.18;;
11197;SDS011;5655;48.744;9.162;2023-08-21T08:38:09;12.55;;;6.75;;
11197;SDS011;5655;48.744;9.162;2023-08-21T08:40:35;9.18;;;7.40;;
11197;SDS011;5655;48.744;9.162;2023-08-21T08:43:07;9.90;;;6.63;;
11197;SDS011;5655;48.744;9.162;2023-08-21T08:45:33;11.50;;;6.75;;
11197;SDS011;5655;48.744;9.162;2023-08-21T08:48:00;9.57;;;6.78;;
11197;SDS011;5655;48.744;9.162;2023-08-21T08:50:28;8.77;;;6.53;;
11197;SDS011;5655;48.744;9.162;2023-08-21T08:52:55;9.75;;;7.05;;
11197;SDS011;5655;48.744;9.162;2023-08-21T08:55:22;7.90;;;6.22;;
11197;SDS011;5655;48.744;9.162;2023-08-21T08:57:48;8.45;;;6.43;;
11197;SDS011;5655;48.744;9.162;2023-08-21T09:00:14;8.95;;;6.53;;
11197;SDS011;5655;48.744;9.162;2023-08-21T09:02:39;8.13;;;6.03;;
11197;SDS011;5655;48.744;9.162;2023-08-21T09:05:05;9.35;;;6.60;;
11197;SDS011;5655;48.744;9.162;2023-08-21T09:07:31;7.70;;;6.80;;
11197;SDS011;5655;48.744;9.162;2023-08-21T09:09:57;8.65;;;6.60;;
11197;SDS011;5655;48.744;9.162;2023-08-21T09:12:22;10.55;;;6.70;;
11197;SDS011;5655;48.744;9.162;2023-08-21T09:14:47;9.90;;;7.13;;
11197;SDS011;5655;48.744;9.162;2023-08-21T09:17:13;10.70;;;6.40;;
11197;SDS011;5655;48.744;9.162;2023-08-21T09:19:39;8.93;;;6.72;;
11197;SDS011;5655;48.744;9.162;2023-08-21T09:22:11;8.32;;;6.60;;
11197;SDS011;5655;48.744;9.162;2023-08-21T09:24:39;8.00;;;6.85;;
11197;SDS011;5655;48.744;9.162;2023-08-21T09:27:11;9.23;;;6.28;;
11197;SDS011;5655;48.744;9.162;2023-08-21T09:29:39;6.82;;;6.10;;
11197;SDS011;5655;48.744;9.162;2023-08-21T09:32:07;8.82;;;5.38;;
11197;SDS011;5655;48.744;9.162;2023-08-21T09:34:33;7.45;;;5.88;;
11197;SDS011;5655;48.744;9.162;2023-08-21T09:37:04;12.27;;;5.82;;
11197;SDS011;5655;48.744;9.162;2023-08-21T09:39:35;10.02;;;6.63;;
11197;SDS011;5655;48.744;9.162;2023-08-21T09:42:07;11.30;;;5.85;;
11197;SDS011;5655;48.744;9.162;2023-08-21T09:44:40;8.02;;;5.55;;
11197;SDS011;5655;48.744;9.162;2023-08-21T09:47:09;8.50;;;5.65;;
11197;SDS011;5655;48.744;9.162;2023-08-21T09:49:36;12.77;;;6.40;;
11197;SDS011;5655;48.744;9.162;2023-08-21T09:52:06;9.65;;;5.95;;
11197;SDS011;5655;48.744;9.162;2023-08-21T09:54:33;9.27;;;5.63;;
11197;SDS011;5655;48.744;9.162;2023-08-21T09:57:02;8.43;;;6.07;;
11197;SDS011;5655;48.744;9.162;2023-08-21T09:59:29;8.82;;;6.15;;
11197;SDS011;5655;48.744;9.162;2023-08-21T10:01:55;9.38;;;5.82;;
11197;SDS011;5655;48.744;9.162;2023-08-21T10:04:23;7.60;;;5.25;;
11197;SDS011;5655;48.744;9.162;2023-08-21T10:06:49;6.03;;;5.00;;
11197;SDS011;5655;48.744;9.162;2023-08-21T10:09:16;7.97;;;5.63;;
11197;SDS011;5655;48.744;9.162;2023-08-21T10:11:42;8.80;;;5.63;;
11197;SDS011;5655;48.744;9.162;2023-08-21T10:14:08;10.13;;;6.40;;
11197;SDS011;5655;48.744;9.162;2023-08-21T10:16:33;9.60;;;6.07;;
11197;SDS011;5655;48.744;9.162;2023-08-21T10:19:02;7.93;;;5.55;;
11197;SDS011;5655;48.744;9.162;2023-08-21T10:21:31;9.68;;;5.07;;
11197;SDS011;5655;48.744;9.162;2023-08-21T10:24:00;7.53;;;5.18;;
11197;SDS011;5655;48.744;9.162;2023-08-21T10:26:26;6.63;;;5.43;;
11197;SDS011;5655;48.744;9.162;2023-08-21T10:28:56;8.27;;;5.50;;
11197;SDS011;5655;48.744;9.162;2023-08-21T10:33:57;7.78;;;4.70;;
11197;SDS011;5655;48.744;9.162;2023-08-21T10:39:20;6.68;;;4.97;;
11197;SDS011;5655;48.744;9.162;2023-08-21T10:41:57;7.63;;;5.25;;
11197;SDS011;5655;48.744;9.162;2023-08-21T10:47:21;7.50;;;5.47;;
11197;SDS011;5655;48.744;9.162;2023-08-21T10:49:58;9.75;;;5.50;;
11197;SDS011;5655;48.744;9.162;2023-08-21T10:52:37;6.05;;;5.30;;
11197;SDS011;5655;48.744;9.162;2023-08-21T10:55:08;6.55;;;5.30;;
11197;SDS011;5655;48.744;9.162;2023-08-21T10:57:34;11.10;;;5.85;;
11197;SDS011;5655;48.744;9.162;2023-08-21T11:02:28;8.73;;;5.63;;
11197;SDS011;5655;48.744;9.162;2023-08-21T11:04:55;8.90;;;5.30;;
11197;SDS011;5655;48.744;9.162;2023-08-21T11:07:21;7.28;;;4.50;;
11197;SDS011;5655;48.744;9.162;2023-08-21T11:09:47;6.97;;;5.63;;
11197;SDS011;5655;48.744;9.162;2023-08-21T11:12:14;11.02;;;6.15;;
11197;SDS011;5655;48.744;9.162;2023-08-21T11:14:42;6.88;;;5.13;;
11197;SDS011;5655;48.744;9.162;2023-08-21T11:17:08;8.20;;;5.30;;
11197;SDS011;5655;48.744;9.162;2023-08-21T11:19:34;9.07;;;5.60;;
11197;SDS011;5655;48.744;9.162;2023-08-21T11:22:01;11.52;;;5.82;;
11197;SDS011;5655;48.744;9.162;2023-08-21T11:27:05;6.55;;;5.45;;
11197;SDS011;5655;48.744;9.162;2023-08-21T11:29:44;9.73;;;5.65;;
11197;SDS011;5655;48.744;9.162;2023-08-21T11:32:13;7.05;;;5.63;;
11197;SDS011;5655;48.744;9.162;2023-08-21T11:34:40;7.82;;;5.07;;
11197;SDS011;5655;48.744;9.162;2023-08-21T11:37:07;13.93;;;5.75;;
11197;SDS011;5655;48.744;9.162;2023-08-21T11:39:42;8.80;;;5.18;;
11197;SDS011;5655;48.744;9.162;2023-08-21T11:42:18;7.20;;;5.03;;
11197;SDS011;5655;48.744;9.162;2023-08-21T11:44:51;9.68;;;5.63;;
11197;SDS011;5655;48.744;9.162;2023-08-21T11:47:18;5.75;;;4.93;;
11197;SDS011;5655;48.744;9.162;2023-08-21T11:49:45;6.45;;;5.15;;
11197;SDS011;5655;48.744;9.162;2023-08-21T11:52:12;6.15;;;5.25;;
11197;SDS011;5655;48.744;9.162;2023-08-21T11:54:40;6.75;;;5.07;;
11197;SDS011;5655;48.744;9.162;2023-08-21T11:57:06;9.50;;;5.63;;
11197;SDS011;5655;48.744;9.162;2023-08-21T11:59:33;7.10;;;4.97;;
11197;SDS011;5655;48.744;9.162;2023-08-21T12:01:59;7.72;;;5.22;;
11197;SDS011;5655;48.744;9.162;2023-08-21T12:04:24;7.85;;;5.40;;
11197;SDS011;5655;48.744;9.162;2023-08-21T12:06:50;6.65;;;4.82;;
11197;SDS011;5655;48.744;9.162;2023-08-21T12:09:15;13.95;;;5.63;;
11197;SDS011;5655;48.744;9.162;2023-08-21T12:11:40;6.07;;;4.82;;
11197;SDS011;5655;48.744;9.162;2023-08-21T12:14:06;6.50;;;4.82;;
11197;SDS011;5655;48.744;9.162;2023-08-21T12:16:32;7.97;;;5.38;;
11197;SDS011;5655;48.744;9.162;2023-08-21T12:18:57;8.40;;;4.70;;
11197;SDS011;5655;48.744;9.162;2023-08-21T12:21:23;8.73;;;5.15;;
11197;SDS011;5655;48.744;9.162;2023-08-21T12:23:49;9.18;;;5.25;;
11197;SDS011;5655;48.744;9.162;2023-08-21T12:26:14;13.05;;;5.55;;
11197;SDS011;5655;48.744;9.162;2023-08-21T12:28:46;6.43;;;5.00;;
11197;SDS011;5655;48.744;9.162;2023-08-21T12:31:15;7.57;;;5.32;;
11197;SDS011;5655;48.744;9.162;2023-08-21T12:33:40;7.18;;;4.97;;
11197;SDS011;5655;48.744;9.162;2023-08-21T12:36:06;5.20;;;4.70;;
11197;SDS011;5655;48.744;9.162;2023-08-21T12:38:33;8.55;;;5.00;;
11197;SDS011;5655;48.744;9.162;2023-08-21T12:40:59;8.00;;;4.90;;
11197;SDS011;5655;48.744;9.162;2023-08-21T12:43:26;6.63;;;4.95;;
11197;SDS011;5655;48.744;9.162;2023-08-21T12:45:51;12.57;;;5.35;;
11197;SDS011;5655;48.744;9.162;2023-08-21T12:48:17;8.43;;;5.22;;
11197;SDS011;5655;48.744;9.162;2023-08-21T12:50:42;9.38;;;5.00;;
11197;SDS011;5655;48.744;9.162;2023-08-21T12:53:07;6.65;;;5.50;;
11197;SDS011;5655;48.744;9.162;2023-08-21T12:55:33;7.57;;;5.43;;
11197;SDS011;5655;48.744;9.162;2023-08-21T12:57:58;7.65;;;5.13;;
11197;SDS011;5655;48.744;9.162;2023-08-21T13:00:24;6.65;;;4.85;;
11197;SDS011;5655;48.744;9.162;2023-08-21T13:02:49;7.18;;;5.38;;
11197;SDS011;5655;48.744;9.162;2023-08-21T13:05:14;7.38;;;5.00;;
11197;SDS011;5655;48.744;9.162;2023-08-21T13:07:41;8.10;;;5.40;;
11197;SDS011;5655;48.744;9.162;2023-08-21T13:10:06;6.10;;;5.18;;
11197;SDS011;5655;48.744;9.162;2023-08-21T13:12:32;7.00;;;5.07;;
11197;SDS011;5655;48.744;9.162;2023-08-21T13:14:57;8.13;;;4.93;;
11197;SDS011;5655;48.744;9.162;2023-08-21T13:17:23;8.50;;;5.35;;
11197;SDS011;5655;48.744;9.162;2023-08-21T13:19:49;6.50;;;4.97;;
11197;SDS011;5655;48.744;9.162;2023-08-21T13:22:15;7.35;;;5.10;;
11197;SDS011;5655;48.744;9.162;2023-08-21T13:24:41;6.70;;;5.10;;
11197;SDS011;5655;48.744;9.162;2023-08-21T13:27:06;5.47;;;4.65;;
11197;SDS011;5655;48.744;9.162;2023-08-21T13:29:32;7.68;;;5.15;;
11197;SDS011;5655;48.744;9.162;2023-08-21T13:31:58;9.60;;;5.50;;
11197;SDS011;5655;48.744;9.162;2023-08-21T13:34:23;6.60;;;4.97;;
11197;SDS011;5655;48.744;9.162;2023-08-21T13:36:49;8.23;;;5.10;;
11197;SDS011;5655;48.744;9.162;2023-08-21T13:39:14;8.25;;;5.72;;
11197;SDS011;5655;48.744;9.162;2023-08-21T13:41:40;7.22;;;5.47;;
11197;SDS011;5655;48.744;9.162;2023-08-21T13:44:06;7.18;;;5.07;;
11197;SDS011;5655;48.744;9.162;2023-08-21T13:46:32;7.95;;;5.30;;
11197;SDS011;5655;48.744;9.162;2023-08-21T13:48:58;6.22;;;5.22;;
11197;SDS011;5655;48.744;9.162;2023-08-21T13:51:23;10.80;;;6.00;;
11197;SDS011;5655;48.744;9.162;2023-08-21T13:53:48;8.15;;;6.32;;
11197;SDS011;5655;48.744;9.162;2023-08-21T13:56:14;7.25;;;5.80;;
11197;SDS011;5655;48.744;9.162;2023-08-21T13:58:39;7.15;;;5.85;;
11197;SDS011;5655;48.744;9.162;2023-08-21T14:01:04;6.93;;;5.32;;
11197;SDS011;5655;48.744;9.162;2023-08-21T14:03:31;8.45;;;5.38;;
11197;SDS011;5655;48.744;9.162;2023-08-21T14:05:56;11.02;;;5.93;;
11197;SDS011;5655;48.744;9.162;2023-08-21T14:08:22;11.65;;;6.68;;
11197;SDS011;5655;48.744;9.162;2023-08-21T14:10:47;9.27;;;5.38;;
11197;SDS011;5655;48.744;9.162;2023-08-21T14:13:12;8.32;;;5.50;;
11197;SDS011;5655;48.744;9.162;2023-08-21T14:15:38;8.40;;;5.43;;
11197;SDS011;5655;48.744;9.162;2023-08-21T14:18:03;6.30;;;5.07;;
11197;SDS011;5655;48.744;9.162;2023-08-21T14:20:29;7.00;;;5.43;;
11197;SDS011;5655;48.744;9.162;2023-08-21T14:22:55;9.82;;;5.78;;
11197;SDS011;5655;48.744;9.162;2023-08-21T14:25:20;8.35;;;5.25;;
11197;SDS011;5655;48.744;9.162;2023-08-21T14:27:47;9.20;;;5.10;;
11197;SDS011;5655;48.744;9.162;2023-08-21T14:30:12;9.32;;;5.32;;
11197;SDS011;5655;48.744;9.162;2023-08-21T14:32:39;8.27;;;5.00;;
11197;SDS011;5655;48.744;9.162;2023-08-21T14:35:04;8.85;;;5.68;;
11197;SDS011;5655;48.744;9.162;2023-08-21T14:37:33;7.70;;;5.78;;
11197;SDS011;5655;48.744;9.162;2023-08-21T14:39:58;8.00;;;5.50;;
11197;SDS011;5655;48.744;9.162;2023-08-21T14:42:23;10.35;;;4.90;;
11197;SDS011;5655;48.744;9.162;2023-08-21T14:44:49;5.82;;;5.22;;
11197;SDS011;5655;48.744;9.162;2023-08-21T14:47:14;7.03;;;4.78;;
11197;SDS011;5655;48.744;9.162;2023-08-21T14:49:40;5.65;;;4.95;;
11197;SDS011;5655;48.744;9.162;2023-08-21T14:52:06;6.22;;;5.05;;
11197;SDS011;5655;48.744;9.162;2023-08-21T14:54:33;5.55;;;4.88;;
11197;SDS011;5655;48.744;9.162;2023-08-21T14:57:00;10.27;;;5.35;;
11197;SDS011;5655;48.744;9.162;2023-08-21T14:59:25;7.45;;;4.80;;
11197;SDS011;5655;48.744;9.162;2023-08-21T15:01:50;7.43;;;5.03;;
11197;SDS011;5655;48.744;9.162;2023-08-21T15:04:16;6.53;;;4.95;;
11197;SDS011;5655;48.744;9.162;2023-08-21T15:06:41;8.23;;;5.18;;
11197;SDS011;5655;48.744;9.162;2023-08-21T15:09:06;7.43;;;4.85;;
11197;SDS011;5655;48.744;9.162;2023-08-21T15:11:33;6.97;;;5.07;;